createdAt,value
2023-04-22T00:01:24.710Z,5.50
2023-04-22T00:03:51.677Z,5.50
2023-04-22T00:06:18.908Z,6.00
2023-04-22T00:08:47.703Z,5.77
2023-04-22T00:11:14.209Z,5.43
2023-04-22T00:13:40.784Z,6.17
2023-04-22T00:16:07.506Z,5.77
2023-04-22T00:18:35.521Z,5.93
2023-04-22T00:21:02.382Z,4.93
2023-04-22T00:23:28.931Z,5.53
2023-04-22T00:25:55.402Z,5.63
2023-04-22T00:28:22.002Z,5.53
2023-04-22T00:30:48.588Z,5.30
2023-04-22T00:33:15.103Z,5.30
2023-04-22T00:35:41.577Z,5.87
2023-04-22T00:38:08.237Z,5.13
2023-04-22T00:40:34.728Z,5.50
2023-04-22T00:43:02.777Z,5.07
2023-04-22T00:45:30.751Z,5.13
2023-04-22T00:47:57.646Z,5.07
2023-04-22T00:50:24.261Z,6.30
2023-04-22T00:52:50.894Z,5.83
2023-04-22T00:55:17.426Z,5.80
2023-04-22T00:57:44.523Z,5.50
2023-04-22T01:00:11.767Z,6.10
2023-04-22T01:02:39.018Z,6.00
2023-04-22T01:05:06.329Z,6.03
2023-04-22T01:07:32.857Z,6.13
2023-04-22T01:09:59.852Z,5.80
2023-04-22T01:12:26.356Z,5.87
2023-04-22T01:14:53.032Z,5.60
2023-04-22T01:17:20.005Z,6.00
2023-04-22T01:19:48.038Z,5.63
2023-04-22T01:22:14.963Z,5.43
2023-04-22T01:24:41.464Z,5.97
2023-04-22T01:27:08.305Z,5.97
2023-04-22T01:29:36.346Z,5.60
2023-04-22T01:32:03.852Z,5.67
2023-04-22T01:34:30.793Z,6.20
2023-04-22T01:36:57.483Z,6.37
2023-04-22T01:39:24.133Z,6.17
2023-04-22T01:41:51.302Z,6.07
2023-04-22T01:44:20.116Z,6.30
2023-04-22T01:46:46.679Z,6.50
2023-04-22T01:49:13.227Z,6.77
2023-04-22T01:51:39.885Z,6.43
2023-04-22T01:54:07.078Z,6.43
2023-04-22T01:56:33.555Z,6.10
2023-04-22T01:59:00.068Z,6.30
2023-04-22T02:01:26.647Z,6.07
2023-04-22T02:03:53.264Z,5.77
2023-04-22T02:06:20.082Z,5.93
2023-04-22T02:08:46.937Z,6.47
2023-04-22T02:11:13.539Z,6.33
2023-04-22T02:13:41.055Z,6.03
2023-04-22T02:16:08.202Z,6.50
2023-04-22T02:18:35.206Z,6.43
2023-04-22T02:21:02.040Z,6.00
2023-04-22T02:23:29.040Z,5.60
2023-04-22T02:25:56.102Z,6.00
2023-04-22T02:28:22.967Z,5.83
2023-04-22T02:30:49.625Z,5.87
2023-04-22T02:33:16.142Z,5.90
2023-04-22T02:35:42.644Z,6.07
2023-04-22T02:38:10.552Z,6.43
2023-04-22T02:40:37.113Z,6.07
2023-04-22T02:43:03.944Z,5.10
2023-04-22T02:45:30.458Z,5.90
2023-04-22T02:47:57.159Z,5.20
2023-04-22T02:50:23.650Z,5.80
2023-04-22T02:52:50.136Z,5.43
2023-04-22T02:55:16.609Z,5.70
2023-04-22T02:57:43.553Z,5.50
2023-04-22T03:00:10.948Z,5.60
2023-04-22T03:02:37.612Z,5.00
2023-04-22T03:05:04.293Z,4.80
2023-04-22T03:07:31.128Z,5.03
2023-04-22T03:09:57.595Z,4.90
2023-04-22T03:12:24.830Z,5.00
2023-04-22T03:14:51.319Z,5.70
2023-04-22T03:17:18.026Z,5.23
2023-04-22T03:19:45.042Z,4.77
2023-04-22T03:22:11.546Z,4.93
2023-04-22T03:24:38.335Z,5.23
2023-04-22T03:27:05.743Z,4.83
2023-04-22T03:29:32.251Z,5.10
2023-04-22T03:31:58.853Z,28.90
2023-04-22T03:34:25.469Z,23.73
2023-04-22T03:36:51.947Z,25.40
2023-04-22T03:39:18.430Z,25.13
2023-04-22T03:41:44.970Z,23.30
2023-04-22T03:44:11.440Z,14.17
2023-04-22T03:46:37.958Z,8.57
2023-04-22T03:49:05.123Z,5.73
2023-04-22T03:51:32.040Z,5.53
2023-04-22T03:53:58.928Z,4.80
2023-04-22T03:56:25.619Z,4.90
2023-04-22T03:58:52.096Z,5.17
2023-04-22T04:01:18.765Z,7.83
2023-04-22T04:03:45.522Z,32.43
2023-04-22T04:06:12.296Z,34.53
2023-04-22T04:08:39.178Z,11.93
2023-04-22T04:11:05.725Z,8.03
2023-04-22T04:13:32.649Z,6.10
2023-04-22T04:16:00.430Z,5.60
2023-04-22T04:18:27.210Z,5.27
2023-04-22T04:20:53.703Z,5.00
2023-04-22T04:23:20.212Z,4.57
2023-04-22T04:25:46.746Z,4.30
2023-04-22T04:28:14.046Z,4.80
2023-04-22T04:30:41.884Z,4.17
2023-04-22T04:33:09.120Z,5.03
2023-04-22T04:35:36.398Z,10.83
2023-04-22T04:38:02.994Z,19.93
2023-04-22T04:40:30.212Z,24.77
2023-04-22T04:42:57.686Z,15.73
2023-04-22T04:45:24.596Z,9.37
2023-04-22T04:47:52.948Z,6.93
2023-04-22T04:50:22.717Z,5.80
2023-04-22T04:52:49.733Z,4.87
2023-04-22T04:55:16.678Z,4.50
2023-04-22T04:57:44.517Z,4.67
2023-04-22T05:00:11.425Z,4.97
2023-04-22T05:02:40.567Z,4.40
2023-04-22T05:05:07.812Z,4.53
2023-04-22T05:07:34.386Z,4.50
2023-04-22T05:10:01.304Z,4.47
2023-04-22T05:12:27.827Z,4.20
2023-04-22T05:14:54.342Z,4.47
2023-04-22T05:17:20.964Z,4.23
2023-04-22T05:19:47.527Z,4.17
2023-04-22T05:22:14.015Z,4.23
2023-04-22T05:24:40.564Z,3.90
2023-04-22T05:27:07.483Z,4.07
2023-04-22T05:29:34.041Z,4.80
2023-04-22T05:32:00.574Z,4.00
2023-04-22T05:34:27.207Z,3.93
2023-04-22T05:36:53.701Z,3.90
2023-04-22T05:39:20.721Z,4.23
2023-04-22T05:41:47.369Z,3.93
2023-04-22T05:44:18.079Z,3.80
2023-04-22T05:46:44.583Z,4.07
2023-04-22T05:49:11.287Z,4.17
2023-04-22T05:51:37.808Z,3.57
2023-04-22T05:54:04.332Z,3.57
2023-04-22T05:56:30.860Z,3.90
2023-04-22T05:58:57.385Z,3.80
2023-04-22T06:01:24.979Z,3.83
2023-04-22T06:03:51.687Z,3.90
2023-04-22T06:06:18.471Z,4.00
2023-04-22T06:08:45.312Z,4.20
2023-04-22T06:11:11.790Z,3.80
2023-04-22T06:13:38.707Z,3.50
2023-04-22T06:16:06.283Z,3.60
2023-04-22T06:18:33.541Z,3.63
2023-04-22T06:21:00.813Z,3.80
2023-04-22T06:23:29.808Z,3.47
2023-04-22T06:25:57.042Z,3.10
2023-04-22T06:28:23.672Z,3.20
2023-04-22T06:30:50.206Z,2.70
2023-04-22T06:33:16.714Z,2.80
2023-04-22T06:35:43.493Z,2.87
2023-04-22T06:38:10.052Z,3.20
2023-04-22T06:40:36.533Z,2.57
2023-04-22T06:43:03.051Z,2.40
2023-04-22T06:45:29.751Z,2.47
2023-04-22T06:47:56.323Z,2.63
2023-04-22T06:50:22.892Z,2.57
2023-04-22T06:52:49.468Z,2.80
2023-04-22T06:55:16.316Z,2.23
2023-04-22T06:57:43.211Z,2.67
2023-04-22T07:00:09.936Z,2.23
2023-04-22T07:02:36.700Z,2.00
2023-04-22T07:05:03.575Z,2.37
2023-04-22T07:07:30.101Z,2.00
2023-04-22T07:09:56.564Z,2.17
2023-04-22T07:12:25.442Z,2.50
2023-04-22T07:14:51.930Z,2.33
2023-04-22T07:17:22.177Z,1.90
2023-04-22T07:19:49.135Z,2.20
2023-04-22T07:22:15.868Z,2.00
2023-04-22T07:24:42.616Z,2.17
2023-04-22T07:27:09.143Z,2.00
2023-04-22T07:29:35.689Z,2.27
2023-04-22T07:32:02.205Z,1.90
2023-04-22T07:34:28.777Z,2.13
2023-04-22T07:36:55.489Z,1.77
2023-04-22T07:39:22.539Z,2.00
2023-04-22T07:41:49.146Z,2.00
2023-04-22T07:44:18.625Z,1.97
2023-04-22T07:46:45.166Z,1.90
2023-04-22T07:49:14.224Z,2.30
2023-04-22T07:51:41.306Z,1.90
2023-04-22T07:54:07.827Z,2.17
2023-04-22T07:56:34.839Z,2.03
2023-04-22T07:59:01.410Z,2.57
2023-04-22T08:01:27.936Z,2.87
2023-04-22T08:03:54.625Z,2.10
2023-04-22T08:06:21.268Z,2.90
2023-04-22T08:08:47.766Z,2.20
2023-04-22T08:11:14.443Z,1.90
2023-04-22T08:13:40.966Z,1.97
2023-04-22T08:16:07.765Z,2.30
2023-04-22T08:18:35.308Z,1.90
2023-04-22T08:21:01.903Z,1.97
2023-04-22T08:23:28.370Z,1.93
2023-04-22T08:25:55.339Z,2.50
2023-04-22T08:28:21.911Z,2.10
2023-04-22T08:30:48.419Z,2.10
2023-04-22T08:33:16.270Z,2.30
2023-04-22T08:35:42.876Z,2.10
2023-04-22T08:38:09.348Z,2.00
2023-04-22T08:40:36.028Z,1.87
2023-04-22T08:43:02.886Z,2.40
2023-04-22T08:45:29.631Z,2.20
2023-04-22T08:47:57.462Z,1.77
2023-04-22T08:50:24.094Z,2.10
2023-04-22T08:52:50.727Z,1.90
2023-04-22T08:55:17.339Z,2.20
2023-04-22T08:57:44.290Z,2.20
2023-04-22T09:00:13.530Z,2.43
2023-04-22T09:02:42.173Z,2.67
2023-04-22T09:05:12.208Z,3.30
2023-04-22T09:07:39.504Z,2.40
2023-04-22T09:10:06.579Z,2.60
2023-04-22T09:12:33.069Z,2.63
2023-04-22T09:15:00.536Z,2.17
2023-04-22T09:17:38.805Z,2.20
2023-04-22T09:20:06.973Z,2.07
2023-04-22T09:22:41.289Z,2.60
2023-04-22T09:25:28.509Z,2.13
2023-04-22T09:27:56.536Z,2.10
2023-04-22T09:30:24.494Z,2.13
2023-04-22T09:32:55.271Z,2.30
2023-04-22T09:35:29.462Z,2.37
2023-04-22T09:37:56.488Z,2.33
2023-04-22T09:40:23.973Z,2.30
2023-04-22T09:42:54.584Z,1.97
2023-04-22T09:45:27.381Z,2.50
2023-04-22T09:47:54.827Z,2.07
2023-04-22T09:50:21.730Z,1.90
2023-04-22T09:52:54.436Z,2.60
2023-04-22T09:55:22.292Z,2.10
2023-04-22T09:57:51.181Z,2.17
2023-04-22T10:00:19.195Z,2.33
2023-04-22T10:02:46.188Z,2.20
2023-04-22T10:05:12.977Z,2.43
2023-04-22T10:07:40.492Z,2.30
2023-04-22T10:10:09.718Z,2.60
2023-04-22T10:12:36.597Z,2.47
2023-04-22T10:15:09.327Z,2.33
2023-04-22T10:17:37.676Z,2.10
2023-04-22T10:20:07.754Z,2.27
2023-04-22T10:22:34.881Z,2.37
2023-04-22T10:25:01.605Z,2.57
2023-04-22T10:27:28.075Z,2.37
2023-04-22T10:29:56.961Z,2.50
2023-04-22T10:32:28.019Z,2.50
2023-04-22T10:35:08.266Z,2.63
2023-04-22T10:37:34.787Z,2.80
2023-04-22T10:40:17.802Z,2.60
2023-04-22T10:42:50.396Z,2.50
2023-04-22T10:45:17.573Z,2.73
2023-04-22T10:47:44.383Z,2.50
2023-04-22T10:50:16.295Z,2.80
2023-04-22T10:52:43.696Z,2.70
2023-04-22T10:55:10.368Z,2.83
2023-04-22T10:57:40.172Z,2.67
2023-04-22T11:00:29.413Z,2.80
2023-04-22T11:02:58.210Z,2.60
2023-04-22T11:05:27.513Z,2.50
2023-04-22T11:07:56.017Z,2.57
2023-04-22T11:10:44.159Z,2.43
2023-04-22T11:13:14.011Z,2.27
2023-04-22T11:15:41.612Z,2.43
2023-04-22T11:18:09.995Z,2.40
2023-04-22T11:20:36.641Z,2.23
2023-04-22T11:23:03.709Z,2.30
2023-04-22T11:25:30.398Z,2.60
2023-04-22T11:27:56.943Z,2.30
2023-04-22T11:30:24.350Z,2.27
2023-04-22T11:32:52.119Z,2.63
2023-04-22T11:35:20.776Z,2.03
2023-04-22T11:37:50.428Z,2.33
2023-04-22T11:40:30.211Z,2.50
2023-04-22T11:42:59.275Z,2.47
2023-04-22T11:45:26.258Z,2.10
2023-04-22T11:47:53.437Z,2.57
2023-04-22T11:50:26.028Z,2.77
2023-04-22T11:52:57.219Z,3.57
2023-04-22T11:55:23.865Z,2.43
2023-04-22T11:57:54.692Z,2.57
2023-04-22T12:00:24.590Z,2.73
2023-04-22T12:03:00.498Z,2.37
2023-04-22T12:05:34.334Z,2.60
2023-04-22T12:08:02.128Z,2.50
2023-04-22T12:10:28.692Z,2.90
2023-04-22T12:12:55.353Z,2.60
2023-04-22T12:15:21.848Z,2.97
2023-04-22T12:17:50.572Z,2.77
2023-04-22T12:20:17.124Z,2.70
2023-04-22T12:22:43.644Z,2.63
2023-04-22T12:25:10.722Z,2.60
2023-04-22T12:27:39.765Z,2.20
2023-04-22T12:30:06.758Z,2.67
2023-04-22T12:32:33.253Z,2.50
2023-04-22T12:34:59.728Z,2.80
2023-04-22T12:37:27.012Z,2.50
2023-04-22T12:39:53.727Z,2.60
2023-04-22T12:42:23.191Z,2.33
2023-04-22T12:44:49.727Z,2.70
2023-04-22T12:47:18.150Z,2.77
2023-04-22T12:49:47.277Z,2.87
2023-04-22T12:52:13.942Z,2.90
2023-04-22T12:54:40.450Z,3.10
2023-04-22T12:57:06.961Z,2.73
2023-04-22T12:59:33.600Z,3.27
2023-04-22T13:02:00.193Z,2.67
2023-04-22T13:04:26.840Z,2.87
2023-04-22T13:06:56.560Z,3.10
2023-04-22T13:09:24.876Z,2.60
2023-04-22T13:11:51.591Z,3.00
2023-04-22T13:14:20.394Z,2.80
2023-04-22T13:16:47.360Z,2.90
2023-04-22T13:19:14.131Z,3.00
2023-04-22T13:21:40.661Z,3.00
2023-04-22T13:24:07.485Z,2.80
2023-04-22T13:26:33.934Z,3.13
2023-04-22T13:29:02.612Z,3.60
2023-04-22T13:31:29.617Z,3.07
2023-04-22T13:33:56.135Z,3.00
2023-04-22T13:36:22.690Z,3.23
2023-04-22T13:38:49.589Z,3.20
2023-04-22T13:41:16.077Z,3.00
2023-04-22T13:43:42.632Z,3.37
2023-04-22T13:46:09.168Z,3.40
2023-04-22T13:48:35.897Z,3.30
2023-04-22T13:51:02.403Z,3.43
2023-04-22T13:53:33.460Z,3.33
2023-04-22T13:56:00.941Z,3.53
2023-04-22T13:58:27.688Z,3.77
2023-04-22T14:00:54.363Z,4.33
2023-04-22T14:03:21.121Z,4.30
2023-04-22T14:05:47.740Z,3.60
2023-04-22T14:08:14.299Z,3.40
2023-04-22T14:10:40.803Z,2.90
2023-04-22T14:13:07.330Z,3.27
2023-04-22T14:15:33.819Z,2.97
2023-04-22T14:18:00.463Z,3.23
2023-04-22T14:20:27.160Z,2.80
2023-04-22T14:22:53.668Z,2.83
2023-04-22T14:25:20.195Z,3.50
2023-04-22T14:27:49.524Z,13.77
2023-04-22T14:30:16.624Z,3.77
2023-04-22T14:32:44.253Z,5.07
2023-04-22T14:35:10.851Z,14.70
2023-04-22T14:37:37.362Z,3.77
2023-04-22T14:40:04.408Z,2.93
2023-04-22T14:42:30.913Z,3.80
2023-04-22T14:44:57.467Z,3.37
2023-04-22T14:47:24.023Z,4.03
2023-04-22T14:49:50.760Z,8.20
2023-04-22T14:52:17.255Z,6.73
2023-04-22T14:54:43.819Z,10.37
2023-04-22T14:57:10.331Z,11.30
2023-04-22T14:59:36.866Z,24.97
2023-04-22T15:02:03.908Z,12.97
2023-04-22T15:04:30.561Z,9.67
2023-04-22T15:07:01.451Z,6.27
2023-04-22T15:09:28.026Z,10.63
2023-04-22T15:11:56.541Z,22.77
2023-04-22T15:14:23.161Z,13.67
2023-04-22T15:16:49.639Z,7.00
2023-04-22T15:19:16.160Z,7.53
2023-04-22T15:21:42.710Z,5.43
2023-04-22T15:24:09.214Z,5.27
2023-04-22T15:26:35.948Z,5.60
2023-04-22T15:29:03.482Z,6.30
2023-04-22T15:31:29.987Z,5.13
2023-04-22T15:33:56.517Z,6.03
2023-04-22T15:36:23.103Z,5.70
2023-04-22T15:38:54.381Z,5.67
2023-04-22T15:41:21.038Z,5.33
2023-04-22T15:43:47.978Z,9.23
2023-04-22T15:46:14.968Z,6.40
2023-04-22T15:48:44.545Z,5.20
2023-04-22T15:51:11.959Z,4.70
2023-04-22T15:53:38.440Z,20.83
2023-04-22T15:56:05.054Z,16.80
2023-04-22T15:58:34.473Z,9.20
2023-04-22T16:01:11.504Z,4.97
2023-04-22T16:03:44.663Z,4.40
2023-04-22T16:06:11.293Z,4.07
2023-04-22T16:08:38.266Z,4.27
2023-04-22T16:11:05.424Z,3.70
2023-04-22T16:13:32.013Z,3.50
2023-04-22T16:15:58.544Z,2.90
2023-04-22T16:18:25.290Z,2.80
2023-04-22T16:20:51.828Z,3.03
2023-04-22T16:23:18.384Z,3.57
2023-04-22T16:25:44.842Z,3.77
2023-04-22T16:28:11.633Z,3.83
2023-04-22T16:30:39.066Z,4.40
2023-04-22T16:33:05.642Z,3.93
2023-04-22T16:35:32.434Z,4.53
2023-04-22T16:37:58.898Z,4.73
2023-04-22T16:40:25.398Z,6.27
2023-04-22T16:42:51.912Z,3.10
2023-04-22T16:45:18.395Z,3.07
2023-04-22T16:47:44.891Z,3.00
2023-04-22T16:50:12.506Z,3.63
2023-04-22T16:52:39.408Z,3.90
2023-04-22T16:55:06.410Z,4.40
2023-04-22T16:57:33.139Z,5.03
2023-04-22T16:59:59.635Z,4.27
2023-04-22T17:02:26.336Z,4.07
2023-04-22T17:04:52.852Z,4.27
2023-04-22T17:07:19.346Z,4.40
2023-04-22T17:09:46.477Z,4.13
2023-04-22T17:12:12.933Z,3.97
2023-04-22T17:14:39.423Z,3.87
2023-04-22T17:17:05.927Z,4.50
2023-04-22T17:19:32.463Z,4.40
2023-04-22T17:21:59.043Z,4.40
2023-04-22T17:24:25.609Z,4.83
2023-04-22T17:26:52.199Z,4.60
2023-04-22T17:29:21.779Z,4.70
2023-04-22T17:31:49.081Z,4.93
2023-04-22T17:34:15.598Z,4.43
2023-04-22T17:36:42.171Z,4.20
2023-04-22T17:39:09.047Z,4.37
2023-04-22T17:41:35.656Z,4.50
2023-04-22T17:44:02.402Z,4.77
2023-04-22T17:46:28.935Z,5.47
2023-04-22T17:48:55.482Z,4.80
2023-04-22T17:51:21.960Z,4.73
2023-04-22T17:53:48.510Z,5.13
2023-04-22T17:56:14.989Z,4.77
2023-04-22T17:58:41.577Z,4.50
2023-04-22T18:01:08.391Z,4.40
2023-04-22T18:03:35.460Z,3.40
2023-04-22T18:06:02.262Z,3.37
2023-04-22T18:08:28.802Z,2.87
2023-04-22T18:10:55.476Z,2.73
2023-04-22T18:13:21.984Z,2.57
2023-04-22T18:15:48.472Z,2.93
2023-04-22T18:18:16.267Z,2.70
2023-04-22T18:20:44.484Z,3.10
2023-04-22T18:23:11.135Z,2.87
2023-04-22T18:25:37.729Z,3.07
2023-04-22T18:28:04.749Z,2.73
2023-04-22T18:30:32.703Z,3.00
2023-04-22T18:32:59.454Z,3.03
2023-04-22T18:35:26.652Z,2.70
2023-04-22T18:37:53.174Z,2.90
2023-04-22T18:40:21.226Z,2.70
2023-04-22T18:42:47.989Z,2.93
2023-04-22T18:45:16.587Z,2.97
2023-04-22T18:47:44.180Z,3.17
2023-04-22T18:50:10.775Z,3.10
2023-04-22T18:52:37.444Z,2.70
2023-04-22T18:55:04.291Z,3.10
2023-04-22T18:57:30.845Z,2.93
2023-04-22T18:59:57.334Z,2.80
2023-04-22T19:02:23.955Z,3.10
2023-04-22T19:04:51.404Z,3.40
2023-04-22T19:07:18.020Z,4.07
2023-04-22T19:09:44.474Z,3.70
2023-04-22T19:12:14.865Z,3.73
2023-04-22T19:14:41.964Z,3.10
2023-04-22T19:17:08.901Z,3.17
2023-04-22T19:19:35.469Z,3.63
2023-04-22T19:22:02.052Z,3.57
2023-04-22T19:24:33.992Z,3.80
2023-04-22T19:27:02.684Z,3.27
2023-04-22T19:29:29.554Z,3.70
2023-04-22T19:31:57.394Z,4.40
2023-04-22T19:34:24.159Z,4.10
2023-04-22T19:36:51.379Z,3.90
2023-04-22T19:39:18.234Z,4.30
2023-04-22T19:41:44.828Z,4.33
2023-04-22T19:44:11.641Z,4.50
2023-04-22T19:46:38.604Z,4.67
2023-04-22T19:49:06.178Z,5.00
2023-04-22T19:51:32.782Z,5.00
2023-04-22T19:53:59.349Z,5.00
2023-04-22T19:56:25.958Z,4.67
2023-04-22T19:58:52.763Z,5.10
2023-04-22T20:01:19.377Z,5.00
2023-04-22T20:03:47.468Z,6.07
2023-04-22T20:06:15.392Z,6.37
2023-04-22T20:08:42.526Z,6.80
2023-04-22T20:11:09.368Z,7.20
2023-04-22T20:13:36.100Z,7.57
2023-04-22T20:16:03.743Z,8.40
2023-04-22T20:18:30.625Z,9.30
2023-04-22T20:20:58.689Z,9.90
2023-04-22T20:23:25.350Z,10.13
2023-04-22T20:25:54.355Z,11.37
2023-04-22T20:28:20.981Z,12.67
2023-04-22T20:30:47.529Z,12.23
2023-04-22T20:33:16.728Z,12.10
2023-04-22T20:35:44.482Z,12.67
2023-04-22T20:38:13.463Z,14.67
2023-04-22T20:40:40.440Z,17.07
2023-04-22T20:43:07.163Z,17.60
2023-04-22T20:45:34.161Z,20.23
2023-04-22T20:48:00.791Z,20.77
2023-04-22T20:50:33.111Z,21.63
2023-04-22T20:53:00.451Z,22.43
2023-04-22T20:55:26.956Z,20.93
2023-04-22T20:57:53.461Z,20.00
2023-04-22T21:00:20.885Z,19.13
2023-04-22T21:02:48.356Z,20.97
2023-04-22T21:05:14.975Z,18.83
2023-04-22T21:07:43.416Z,19.83
2023-04-22T21:10:10.384Z,20.30
2023-04-22T21:12:38.311Z,21.20
2023-04-22T21:15:05.155Z,21.63
2023-04-22T21:17:32.191Z,20.37
2023-04-22T21:19:58.979Z,19.27
2023-04-22T21:22:25.639Z,20.30
2023-04-22T21:24:52.842Z,20.67
2023-04-22T21:27:20.191Z,21.37
2023-04-22T21:29:50.126Z,19.53
2023-04-22T21:32:17.490Z,19.70
2023-04-22T21:34:46.739Z,19.50
2023-04-22T21:37:13.557Z,19.53
2023-04-22T21:39:40.515Z,20.33
2023-04-22T21:42:08.864Z,19.60
2023-04-22T21:44:38.141Z,19.97
2023-04-22T21:47:05.328Z,20.50
2023-04-22T21:49:31.945Z,20.03
2023-04-22T21:51:58.799Z,21.07
2023-04-22T21:54:25.435Z,20.57
2023-04-22T21:56:51.959Z,22.03
2023-04-22T21:59:18.595Z,23.07
2023-04-22T22:01:45.125Z,23.27
2023-04-22T22:04:14.774Z,23.03
2023-04-22T22:06:42.473Z,23.20
2023-04-22T22:09:09.130Z,23.37
2023-04-22T22:11:36.144Z,23.87
2023-04-22T22:14:02.734Z,24.37
2023-04-22T22:16:29.716Z,25.30
2023-04-22T22:18:57.989Z,24.60
2023-04-22T22:21:24.658Z,25.90
2023-04-22T22:23:51.239Z,25.03
2023-04-22T22:26:17.782Z,26.70
2023-04-22T22:28:44.259Z,26.67
2023-04-22T22:31:10.867Z,27.97
2023-04-22T22:33:38.142Z,26.10
2023-04-22T22:36:04.774Z,26.93
2023-04-22T22:38:32.015Z,26.23
2023-04-22T22:40:58.506Z,26.50
2023-04-22T22:43:24.987Z,27.17
2023-04-22T22:45:51.733Z,27.77
2023-04-22T22:48:18.312Z,27.33
2023-04-22T22:50:46.571Z,27.43
2023-04-22T22:53:13.406Z,26.40
2023-04-22T22:55:39.904Z,28.33
2023-04-22T22:58:07.389Z,27.10
2023-04-22T23:00:33.973Z,26.57
2023-04-22T23:03:03.428Z,28.23
2023-04-22T23:05:30.603Z,29.30
2023-04-22T23:07:57.139Z,28.73
2023-04-22T23:10:23.697Z,28.67
2023-04-22T23:12:50.390Z,27.70
2023-04-22T23:15:17.009Z,28.00
2023-04-22T23:17:43.641Z,27.20
2023-04-22T23:20:11.197Z,26.47
2023-04-22T23:22:38.662Z,26.70
2023-04-22T23:25:06.264Z,27.10
2023-04-22T23:27:32.849Z,27.07
2023-04-22T23:29:59.806Z,26.17
2023-04-22T23:32:29.165Z,26.60
2023-04-22T23:34:56.570Z,27.13
2023-04-22T23:37:24.565Z,29.13
2023-04-22T23:39:51.444Z,28.53
2023-04-22T23:42:17.953Z,28.23
2023-04-22T23:44:44.444Z,29.13
2023-04-22T23:47:11.318Z,29.93
2023-04-22T23:49:37.880Z,30.00
2023-04-22T23:52:04.587Z,28.53
2023-04-22T23:54:31.454Z,30.10
2023-04-22T23:56:58.214Z,27.93
2023-04-22T23:59:25.592Z,28.53
